LVYBP SADL-SABE
Flight info
| Callsign | LVYBP |
|---|---|
| Flight time | 0h 13m |
| Altitude | 4000 |
| Route | ILM |
| Aircraft | B350/L-SBGRW/S |
Departure
| Time | 2026-05-03 22:21 |
|---|---|
| Airport | La Plata Airport (SADL) |
Arrival
| Time | 2026-05-03 22:35 |
|---|---|
| Airport | Aeroparque Jorge Newbery (SABE) |
| Time | Latitude | Longitude | Altitude | Speed | Heading |
|---|---|---|---|---|---|
| 2026-05-03 22:00 | -34.96097 | -57.89334 | 63 ft | 0 kts | 213° |
| 2026-05-03 22:17 | -34.96087 | -57.89329 | 58 ft | 3 kts | 158° |
| 2026-05-03 22:18 | -34.96085 | -57.89331 | 60 ft | 0 kts | 137° |
| 2026-05-03 22:18 | -34.96092 | -57.89321 | 63 ft | 9 kts | 127° |
| 2026-05-03 22:18 | -34.96133 | -57.89272 | 63 ft | 6 kts | 170° |
| 2026-05-03 22:18 | -34.96186 | -57.89239 | 60 ft | 10 kts | 147° |
| 2026-05-03 22:19 | -34.96245 | -57.89195 | 63 ft | 0 kts | 150° |
| 2026-05-03 22:19 | -34.96270 | -57.89176 | 63 ft | 12 kts | 149° |
| 2026-05-03 22:20 | -34.96358 | -57.89130 | 64 ft | 14 kts | 202° |
| 2026-05-03 22:20 | -34.96393 | -57.89148 | 64 ft | 0 kts | 195° |
| 2026-05-03 22:20 | -34.96394 | -57.89148 | 64 ft | 1 kts | 195° |
| 2026-05-03 22:21 | -34.96484 | -57.89172 | 61 ft | 49 kts | 191° |
| 2026-05-03 22:21 | -34.97108 | -57.89363 | 58 ft | 128 kts | 193° |
| 2026-05-03 22:21 | -34.98063 | -57.89657 | 440 ft | 150 kts | 193° |
| 2026-05-03 22:21 | -34.99060 | -57.90216 | 678 ft | 180 kts | 225° |
| 2026-05-03 22:22 | -34.99597 | -57.91632 | 935 ft | 190 kts | 272° |
| 2026-05-03 22:22 | -34.99115 | -57.93031 | 1568 ft | 182 kts | 320° |
| 2026-05-03 22:22 | -34.97901 | -57.93535 | 1819 ft | 198 kts | 2° |
| 2026-05-03 22:22 | -34.96554 | -57.93019 | 2048 ft | 203 kts | 23° |
| 2026-05-03 22:23 | -34.95248 | -57.92540 | 2206 ft | 197 kts | 359° |
| 2026-05-03 22:23 | -34.93912 | -57.92950 | 2471 ft | 196 kts | 329° |
| 2026-05-03 22:23 | -34.92907 | -57.94063 | 2621 ft | 203 kts | 307° |
| 2026-05-03 22:23 | -34.92106 | -57.95472 | 2935 ft | 197 kts | 302° |
| 2026-05-03 22:24 | -34.91392 | -57.96833 | 3487 ft | 184 kts | 308° |
| 2026-05-03 22:24 | -34.90576 | -57.97991 | 3943 ft | 180 kts | 311° |
| 2026-05-03 22:24 | -34.89682 | -57.99173 | 3961 ft | 198 kts | 312° |
| 2026-05-03 22:24 | -34.88738 | -58.00423 | 4108 ft | 203 kts | 312° |
| 2026-05-03 22:25 | -34.87795 | -58.01655 | 4541 ft | 195 kts | 312° |
| 2026-05-03 22:25 | -34.86849 | -58.02915 | 4508 ft | 212 kts | 310° |
| 2026-05-03 22:25 | -34.85848 | -58.04298 | 4152 ft | 233 kts | 311° |
| 2026-05-03 22:25 | -34.84720 | -58.05809 | 3982 ft | 232 kts | 311° |
| 2026-05-03 22:26 | -34.83656 | -58.07229 | 3980 ft | 226 kts | 311° |
| 2026-05-03 22:26 | -34.82607 | -58.08638 | 3984 ft | 223 kts | 311° |
| 2026-05-03 22:26 | -34.81567 | -58.10027 | 3977 ft | 220 kts | 311° |
| 2026-05-03 22:26 | -34.80536 | -58.11408 | 3978 ft | 218 kts | 311° |
| 2026-05-03 22:27 | -34.79530 | -58.12751 | 3979 ft | 216 kts | 311° |
| 2026-05-03 22:27 | -34.78520 | -58.14101 | 3985 ft | 215 kts | 311° |
| 2026-05-03 22:27 | -34.77534 | -58.15419 | 3978 ft | 205 kts | 311° |
| 2026-05-03 22:27 | -34.76591 | -58.16680 | 3917 ft | 199 kts | 311° |
| 2026-05-03 22:28 | -34.75659 | -58.17924 | 3773 ft | 198 kts | 311° |
| 2026-05-03 22:28 | -34.74730 | -58.19164 | 3615 ft | 198 kts | 311° |
| 2026-05-03 22:28 | -34.73800 | -58.20405 | 3474 ft | 198 kts | 312° |
| 2026-05-03 22:28 | -34.72876 | -58.21636 | 3342 ft | 197 kts | 312° |
| 2026-05-03 22:29 | -34.71960 | -58.22843 | 3214 ft | 195 kts | 315° |
| 2026-05-03 22:29 | -34.70813 | -58.23697 | 3091 ft | 196 kts | 339° |
| 2026-05-03 22:29 | -34.69464 | -58.23959 | 2963 ft | 197 kts | 0° |
| 2026-05-03 22:29 | -34.68099 | -58.23877 | 2830 ft | 196 kts | 0° |
| 2026-05-03 22:30 | -34.66746 | -58.23984 | 2699 ft | 195 kts | 343° |
| 2026-05-03 22:30 | -34.65537 | -58.24704 | 2542 ft | 194 kts | 323° |
| 2026-05-03 22:30 | -34.64632 | -58.25912 | 2399 ft | 193 kts | 304° |
| 2026-05-03 22:30 | -34.63906 | -58.27254 | 2244 ft | 188 kts | 305° |
| 2026-05-03 22:31 | -34.63206 | -58.28500 | 2101 ft | 168 kts | 306° |
| 2026-05-03 22:31 | -34.62588 | -58.29612 | 1962 ft | 147 kts | 305° |
| 2026-05-03 22:31 | -34.62050 | -58.30584 | 1814 ft | 131 kts | 306° |
| 2026-05-03 22:31 | -34.61577 | -58.31471 | 1648 ft | 124 kts | 302° |
| 2026-05-03 22:32 | -34.61167 | -58.32303 | 1512 ft | 109 kts | 304° |
| 2026-05-03 22:32 | -34.60766 | -58.33063 | 1345 ft | 104 kts | 307° |
| 2026-05-03 22:32 | -34.60349 | -58.33783 | 1204 ft | 108 kts | 308° |
| 2026-05-03 22:32 | -34.59894 | -58.34544 | 1107 ft | 114 kts | 310° |
| 2026-05-03 22:33 | -34.59397 | -58.35310 | 991 ft | 117 kts | 304° |
| 2026-05-03 22:33 | -34.58964 | -58.36140 | 897 ft | 117 kts | 306° |
| 2026-05-03 22:33 | -34.58494 | -58.36938 | 772 ft | 119 kts | 306° |
| 2026-05-03 22:33 | -34.58040 | -58.37788 | 616 ft | 116 kts | 305° |
| 2026-05-03 22:34 | -34.57604 | -58.38560 | 470 ft | 107 kts | 307° |
| 2026-05-03 22:34 | -34.57195 | -58.39297 | 342 ft | 103 kts | 309° |
| 2026-05-03 22:34 | -34.56796 | -58.40012 | 164 ft | 100 kts | 307° |
| 2026-05-03 22:34 | -34.56422 | -58.40682 | 33 ft | 91 kts | 307° |
| 2026-05-03 22:35 | -34.56122 | -58.41216 | 24 ft | 60 kts | 297° |
| 2026-05-03 22:35 | -34.56053 | -58.41383 | 25 ft | 10 kts | 237° |
| 2026-05-03 22:35 | -34.56099 | -58.41426 | 23 ft | 0 kts | 214° |
| 2026-05-03 22:36 | -34.56139 | -58.41460 | 26 ft | 13 kts | 216° |
| 2026-05-03 22:36 | -34.56181 | -58.41482 | 25 ft | 5 kts | 171° |
| 2026-05-03 22:37 | -34.56196 | -58.41450 | 23 ft | 5 kts | 39° |
| 2026-05-03 22:37 | -34.56172 | -58.41431 | 23 ft | 0 kts | 36° |